Time;durP1;ratioP1;P1;durP2;ratioP2;P2;SDS_P1;SDS_P2;PMS_P1;PMS_P2;Temp;Humidity;BMP_temperature;BMP_pressure;BME280_temperature;BME280_humidity;BME280_pressure;Samples;Min_cycle;Max_cycle;Signal;HPM_P1;HPM_P2
2022/08/15 00:02:23;;;;;;;4.50;4.07;;;;;;;21.03;86.27;94231.34;5058077;28;21005;-78
2022/08/15 00:04:50;;;;;;;5.33;4.53;;;;;;;21.07;85.95;94228.25;5057993;28;20434;-78
2022/08/15 00:07:19;;;;;;;4.57;4.17;;;;;;;21.08;85.39;94236.06;5058376;28;20437;-79
2022/08/15 00:09:45;;;;;;;4.50;4.20;;;;;;;21.10;85.78;94241.19;5058028;28;20446;-79
2022/08/15 00:12:12;;;;;;;5.97;4.60;;;;;;;21.07;85.28;94236.25;5057669;28;20449;-79
2022/08/15 00:14:39;;;;;;;8.33;3.47;;;;;;;21.01;84.93;94241.41;5057936;28;20802;-78
2022/08/15 00:17:09;;;;;;;6.70;4.77;;;;;;;20.99;84.75;94243.47;5056147;28;20458;-78
2022/08/15 00:19:38;;;;;;;10.83;4.30;;;;;;;20.96;84.26;94245.75;5055108;28;20456;-78
2022/08/15 00:22:07;;;;;;;5.70;5.07;;;;;;;20.94;85.04;94237.97;5054690;28;20489;-78
2022/08/15 00:24:37;;;;;;;5.20;3.87;;;;;;;20.92;84.44;94229.34;5054525;28;20458;-79
2022/08/15 00:27:19;;;;;;;5.17;4.57;;;;;;;20.92;84.93;94225.88;5054855;28;20445;-78
2022/08/15 00:30:13;;;;;;;6.90;4.10;;;;;;;20.85;85.36;94233.88;5054554;28;20438;-79
2022/08/15 00:32:53;;;;;;;6.87;4.47;;;;;;;20.85;85.39;94233.88;4992828;28;20453;-79
2022/08/15 00:35:39;;;;;;;4.83;4.43;;;;;;;20.86;85.82;94235.53;4944133;28;20440;-79
2022/08/15 00:38:08;;;;;;;4.73;4.33;;;;;;;20.83;85.53;94233.28;4992762;28;20539;-78
2022/08/15 00:43:18;;;;;;;6.60;5.13;;;;;;;20.78;86.21;94225.06;4991890;28;20448;-79
2022/08/15 00:45:45;;;;;;;4.50;4.20;;;;;;;20.69;86.13;94235.13;4992450;28;20456;-79
2022/08/15 00:50:57;;;;;;;6.77;6.07;;;;;;;20.51;87.51;94232.28;4992654;28;20526;-78
2022/08/15 00:53:25;;;;;;;8.23;7.27;;;;;;;20.55;87.93;94232.72;4992433;28;20444;-78
2022/08/15 00:55:55;;;;;;;10.20;6.63;;;;;;;20.40;88.28;94231.06;4992286;28;20453;-79
2022/08/15 00:58:22;;;;;;;7.37;6.33;;;;;;;20.40;88.61;94217.75;4992364;28;20475;-78
2022/08/15 01:00:50;;;;;;;8.83;7.90;;;;;;;20.44;88.11;94223.47;4992216;28;20928;-79
2022/08/15 01:03:22;;;;;;;9.13;8.20;;;;;;;20.35;88.97;94227.38;4943843;28;20491;-78
2022/08/15 01:05:55;;;;;;;9.27;8.27;;;;;;;20.35;89.04;94228.19;4992572;28;20943;-78
2022/08/15 01:08:26;;;;;;;8.70;7.87;;;;;;;20.40;89.36;94224.94;4992198;28;20499;-79
2022/08/15 01:10:57;;;;;;;11.47;9.23;;;;;;;20.47;89.14;94228.41;5045903;28;20454;-79
2022/08/15 01:13:24;;;;;;;17.63;6.93;;;;;;;20.62;88.68;94228.19;5053767;28;21004;-78
2022/08/15 01:15:51;;;;;;;11.37;5.97;;;;;;;20.66;87.76;94224.06;5053748;28;20818;-79
2022/08/15 01:18:19;;;;;;;6.80;5.63;;;;;;;20.67;87.27;94223.03;5053583;28;20442;-80
2022/08/15 01:20:46;;;;;;;4.70;4.30;;;;;;;20.73;87.24;94220.34;5053447;28;20817;-79
2022/08/15 01:23:20;;;;;;;6.17;5.13;;;;;;;20.69;87.09;94213.00;5053449;28;20556;-78
2022/08/15 01:25:55;;;;;;;4.60;4.20;;;;;;;20.68;87.20;94214.03;5053802;28;20441;-79
2022/08/15 01:28:27;;;;;;;5.27;4.87;;;;;;;20.65;86.90;94206.44;5052925;28;20802;-79
2022/08/15 01:30:57;;;;;;;4.43;4.00;;;;;;;20.66;86.95;94224.91;5052983;28;20446;-78
2022/08/15 01:33:26;;;;;;;5.80;5.07;;;;;;;20.64;86.54;94218.94;5053149;28;20450;-78
2022/08/15 01:35:54;;;;;;;6.53;4.90;;;;;;;20.64;86.84;94216.28;5053599;28;20559;-79
2022/08/15 01:38:27;;;;;;;6.07;5.10;;;;;;;20.64;87.26;94224.28;5053424;28;20478;-78
2022/08/15 01:41:08;;;;;;;5.60;5.00;;;;;;;20.65;87.05;94223.25;5053461;28;20458;-79
2022/08/15 01:43:41;;;;;;;8.33;5.53;;;;;;;20.65;86.85;94219.78;5053024;28;20486;-79
2022/08/15 01:46:11;;;;;;;9.30;5.27;;;;;;;20.61;86.62;94218.56;5053053;28;20453;-79
2022/08/15 01:48:45;;;;;;;8.17;4.23;;;;;;;20.66;86.35;94218.75;5053416;28;20434;-78
2022/08/15 01:51:12;;;;;;;5.40;4.73;;;;;;;20.77;85.89;94228.75;5053576;28;20533;-79
2022/08/15 01:53:43;;;;;;;9.50;5.57;;;;;;;20.75;85.48;94220.16;5052942;28;20456;-79
2022/08/15 01:56:18;;;;;;;6.83;4.80;;;;;;;20.70;85.03;94215.44;5052815;28;20986;-78
2022/08/15 01:58:46;;;;;;;6.00;5.07;;;;;;;20.71;85.09;94213.59;5017612;28;20472;-79
2022/08/15 02:01:17;;;;;;;6.93;4.73;;;;;;;20.68;84.94;94217.50;5053019;28;20453;-79
2022/08/15 02:03:47;;;;;;;9.40;4.50;;;;;;;20.57;84.95;94214.66;5052933;28;20449;-79
2022/08/15 02:06:18;;;;;;;6.03;5.43;;;;;;;20.49;85.57;94204.19;5052658;28;20438;-78
2022/08/15 02:08:46;;;;;;;5.90;4.87;;;;;;;20.44;85.68;94202.16;5053151;28;20453;-79
2022/08/15 02:11:17;;;;;;;6.10;4.73;;;;;;;20.43;85.75;94205.84;5052595;28;20805;-79
2022/08/15 02:13:44;;;;;;;5.30;4.90;;;;;;;20.47;85.96;94204.41;5052758;28;20454;-79
2022/08/15 02:16:13;;;;;;;8.67;5.20;;;;;;;20.46;85.00;94197.44;5052676;28;20519;-78
2022/08/15 02:18:40;;;;;;;5.40;4.90;;;;;;;20.55;85.36;94203.41;5052529;28;20520;-79
2022/08/15 02:21:07;;;;;;;4.90;4.30;;;;;;;20.60;84.74;94207.06;5053057;28;20471;-79
2022/08/15 02:23:35;;;;;;;5.83;5.17;;;;;;;20.63;84.51;94211.16;5052746;28;20489;-79
2022/08/15 02:26:04;;;;;;;10.70;5.00;;;;;;;20.63;84.25;94214.66;5052300;28;20491;-79
2022/08/15 02:28:32;;;;;;;4.73;4.33;;;;;;;20.65;83.76;94206.44;5052411;28;20888;-79
2022/08/15 02:30:59;;;;;;;5.57;4.30;;;;;;;20.64;83.85;94207.47;5052452;28;20845;-78
2022/08/15 02:33:28;;;;;;;4.70;4.30;;;;;;;20.68;83.98;94219.34;5052337;28;20453;-78
2022/08/15 02:35:54;;;;;;;5.80;4.57;;;;;;;20.62;83.07;94217.53;5033825;28;20486;-78
2022/08/15 02:38:21;;;;;;;6.20;5.60;;;;;;;20.60;82.77;94224.91;5051980;28;20445;-78
2022/08/15 02:40:49;;;;;;;5.63;5.03;;;;;;;20.57;84.06;94220.00;5052041;28;20485;-78
2022/08/15 02:43:17;;;;;;;8.23;4.50;;;;;;;20.51;85.27;94218.13;5052162;28;20492;-79
2022/08/15 02:45:47;;;;;;;6.37;4.70;;;;;;;20.50;84.93;94227.16;5051949;28;20463;-79
2022/08/15 02:48:15;;;;;;;8.20;5.80;;;;;;;20.42;85.65;94237.00;5052325;28;20534;-79
2022/08/15 02:50:45;;;;;;;5.97;5.47;;;;;;;20.34;85.51;94245.19;5052169;28;20441;-77
2022/08/15 02:53:15;;;;;;;8.10;6.00;;;;;;;20.32;85.27;94243.75;5052298;28;20477;-79
2022/08/15 02:55:44;;;;;;;9.13;5.40;;;;;;;20.29;86.21;94230.84;5016917;28;20449;-78
2022/08/15 02:58:12;;;;;;;5.77;5.10;;;;;;;20.35;86.15;94243.34;5051939;28;20539;-78
2022/08/15 03:00:43;;;;;;;12.67;4.93;;;;;;;20.36;85.67;94245.81;5051893;28;20458;-79
2022/08/15 03:03:14;;;;;;;4.80;4.50;;;;;;;20.37;85.79;94242.13;5051921;28;20517;-78
2022/08/15 03:05:45;;;;;;;4.27;3.80;;;;;;;20.38;85.39;94243.75;5051810;28;20536;-78
2022/08/15 03:08:12;;;;;;;7.17;4.80;;;;;;;20.43;85.34;94248.50;5052013;28;20442;-78
2022/08/15 03:10:40;;;;;;;5.07;4.67;;;;;;;20.40;85.30;94249.72;5052447;28;20438;-78
2022/08/15 03:13:09;;;;;;;6.80;4.90;;;;;;;20.46;85.25;94252.59;5051888;28;20453;-78
2022/08/15 03:15:42;;;;;;;6.00;5.40;;;;;;;20.49;85.20;94249.50;5051814;28;20828;-78
2022/08/15 03:18:09;;;;;;;6.53;5.20;;;;;;;20.54;84.82;94263.88;5052067;28;20453;-79
2022/08/15 03:20:38;;;;;;;6.83;5.30;;;;;;;20.50;84.77;94272.47;5051658;28;20894;-79
2022/08/15 03:23:07;;;;;;;8.93;5.43;;;;;;;20.52;85.21;94267.75;5051527;28;20573;-80
2022/08/15 03:25:39;;;;;;;8.27;6.27;;;;;;;20.54;84.86;94271.06;5051671;28;20444;-79
2022/08/15 03:28:08;;;;;;;5.37;4.83;;;;;;;20.57;85.22;94274.13;5051557;28;20971;-79
2022/08/15 03:30:36;;;;;;;7.77;5.90;;;;;;;20.54;85.05;94279.06;5051957;28;20548;-79
2022/08/15 03:33:03;;;;;;;10.10;6.17;;;;;;;20.55;84.79;94283.38;5051644;28;20528;-79
2022/08/15 03:35:33;;;;;;;7.23;5.93;;;;;;;20.52;85.25;94281.91;5051580;28;20449;-78
2022/08/15 03:38:01;;;;;;;7.97;6.03;;;;;;;20.53;85.29;94288.91;5052044;28;20441;-78
2022/08/15 03:40:29;;;;;;;6.20;5.70;;;;;;;20.56;85.01;94288.50;5052149;28;20806;-78
2022/08/15 03:43:02;;;;;;;8.50;5.93;;;;;;;20.58;84.82;94296.28;5051593;28;20495;-79
2022/08/15 03:45:29;;;;;;;10.27;6.40;;;;;;;20.59;84.86;94297.91;5051821;28;20446;-79
2022/08/15 03:47:56;;;;;;;6.37;5.73;;;;;;;20.55;84.11;94288.69;5051856;28;20445;-78
2022/08/15 03:50:23;;;;;;;6.30;5.73;;;;;;;20.58;84.37;94293.63;5051402;28;20457;-78
2022/08/15 03:52:52;;;;;;;7.70;6.83;;;;;;;20.53;84.65;94293.38;5052996;28;20465;-79
2022/08/15 03:55:22;;;;;;;7.10;5.70;;;;;;;20.49;84.49;94297.50;5055565;28;20449;-78
2022/08/15 03:57:49;;;;;;;6.90;6.23;;;;;;;20.50;85.01;94286.63;5054830;28;20488;-79
2022/08/15 04:00:22;;;;;;;7.80;5.70;;;;;;;20.53;85.01;94293.38;5055254;28;20449;-78
2022/08/15 04:02:49;;;;;;;11.50;6.77;;;;;;;20.55;85.17;94291.34;5055247;28;20905;-78
2022/08/15 04:05:17;;;;;;;9.23;7.07;;;;;;;20.50;84.58;94296.47;5055328;28;20468;-79
2022/08/15 04:07:44;;;;;;;6.83;6.17;;;;;;;20.46;85.35;94300.56;5020154;28;20441;-78
2022/08/15 04:10:13;;;;;;;7.13;6.43;;;;;;;20.46;85.03;94301.38;5054941;28;20451;-78
2022/08/15 04:12:43;;;;;;;6.30;5.70;;;;;;;20.47;85.31;94302.22;5055102;28;20458;-79
2022/08/15 04:15:13;;;;;;;8.50;5.77;;;;;;;20.53;84.75;94310.22;5055125;28;20445;-78
2022/08/15 04:17:47;;;;;;;11.23;5.80;;;;;;;20.50;84.35;94304.47;5054675;28;20434;-79
2022/08/15 04:20:14;;;;;;;7.87;6.40;;;;;;;20.49;85.14;94313.47;5054672;28;20467;-79
2022/08/15 04:22:43;;;;;;;7.20;6.50;;;;;;;20.51;84.58;94311.44;5054727;28;20485;-78
2022/08/15 04:25:12;;;;;;;7.10;6.40;;;;;;;20.51;85.11;94312.25;5054702;28;20455;-79
2022/08/15 04:27:39;;;;;;;7.67;6.87;;;;;;;20.49;85.07;94308.97;5054690;28;20457;-79
2022/08/15 04:30:09;;;;;;;8.77;6.93;;;;;;;20.50;85.56;94310.59;5054922;28;20517;-79
2022/08/15 04:32:37;;;;;;;17.77;6.47;;;;;;;20.57;85.07;94307.97;5054323;28;20449;-78
2022/08/15 04:35:06;;;;;;;7.87;7.17;;;;;;;20.58;84.50;94296.28;5054653;28;20453;-79
2022/08/15 04:37:32;;;;;;;10.97;8.20;;;;;;;20.56;84.58;94288.50;5054895;28;20473;-78
2022/08/15 04:39:59;;;;;;;8.37;7.53;;;;;;;20.58;84.30;94290.94;5054153;28;20798;-78
2022/08/15 04:42:26;;;;;;;8.93;8.03;;;;;;;20.60;84.30;94296.88;5054615;28;20834;-79
2022/08/15 04:44:53;;;;;;;7.63;6.73;;;;;;;20.70;83.84;94292.78;5054212;28;20446;-78
2022/08/15 04:47:21;;;;;;;10.83;7.70;;;;;;;20.84;83.21;94296.25;5054485;28;20450;-78
2022/08/15 04:49:50;;;;;;;10.77;7.00;;;;;;;20.95;83.19;94284.94;5054348;28;20450;-79
2022/08/15 04:52:19;;;;;;;11.73;8.27;;;;;;;21.36;82.17;94299.00;5054269;28;20454;-79
2022/08/15 04:54:46;;;;;;;8.30;7.50;;;;;;;21.91;79.84;94305.56;5054408;28;20456;-79
2022/08/15 04:57:15;;;;;;;9.73;7.00;;;;;;;22.37;76.71;94297.28;5053754;28;20445;-79
2022/08/15 04:59:42;;;;;;;12.60;7.87;;;;;;;22.71;74.84;94311.22;5053961;28;20549;-79
2022/08/15 05:02:11;;;;;;;8.40;7.67;;;;;;;23.01;74.22;94314.88;5054117;28;20454;-79
2022/08/15 05:04:40;;;;;;;10.53;8.03;;;;;;;23.29;72.90;94314.41;5053497;28;20488;-79
2022/08/15 05:07:08;;;;;;;15.50;8.73;;;;;;;23.37;72.15;94308.75;5018505;28;21019;-80
2022/08/15 05:09:35;;;;;;;10.67;7.80;;;;;;;23.27;72.17;94311.13;5053906;28;20450;-79
2022/08/15 05:12:03;;;;;;;9.33;8.37;;;;;;;23.13;72.94;94315.81;5053851;28;20784;-79
2022/08/15 05:14:29;;;;;;;11.83;9.07;;;;;;;22.94;73.64;94316.00;5053830;28;20446;-79
2022/08/15 05:16:56;;;;;;;12.73;9.03;;;;;;;22.82;74.66;94314.00;5054213;28;20843;-79
2022/08/15 05:19:23;;;;;;;14.40;9.60;;;;;;;22.74;75.40;94295.53;5053939;28;20446;-79
2022/08/15 05:21:51;;;;;;;10.77;9.27;;;;;;;22.68;75.95;94296.44;5018662;28;20447;-79
2022/08/15 05:24:18;;;;;;;13.07;8.30;;;;;;;22.97;76.27;94292.28;5053130;28;20493;-79
2022/08/15 05:26:45;;;;;;;9.73;8.77;;;;;;;23.37;73.72;94290.00;5053258;28;20944;-79
2022/08/15 05:29:12;;;;;;;10.70;9.60;;;;;;;23.72;71.63;94300.16;5053707;28;20509;-79
2022/08/15 05:31:39;;;;;;;9.33;8.37;;;;;;;24.09;70.88;94299.03;5053552;28;20449;-79
2022/08/15 05:34:05;;;;;;;9.67;8.67;;;;;;;24.44;69.57;94292.97;5018085;28;20441;-79
2022/08/15 05:36:34;;;;;;;13.10;9.13;;;;;;;24.79;67.40;94300.25;5053185;28;20957;-80
2022/08/15 05:39:11;;;;;;;10.10;7.87;;;;;;;25.20;66.87;94302.06;5053191;28;20875;-79
2022/08/15 05:41:48;;;;;;;12.23;10.53;;;;;;;25.50;66.36;94308.09;5053089;28;20442;-79
2022/08/15 05:44:20;;;;;;;15.80;12.53;;;;;;;25.49;64.76;94311.84;5053538;28;20481;-79
2022/08/15 05:46:57;;;;;;;14.93;12.17;;;;;;;25.58;64.32;94310.41;5052888;28;20461;-79
2022/08/15 05:49:29;;;;;;;13.10;11.77;;;;;;;25.68;64.89;94301.75;5052986;28;20449;-79
2022/08/15 05:52:18;;;;;;;12.73;11.27;;;;;;;25.95;65.45;94304.72;5053202;28;20448;-79
2022/08/15 05:55:10;;;;;;;12.50;10.83;;;;;;;26.19;64.48;94310.84;5053064;28;20533;-79
2022/08/15 05:57:52;;;;;;;15.60;13.00;;;;;;;26.05;63.31;94317.56;5052515;28;20896;-79
2022/08/15 06:00:19;;;;;;;15.50;13.70;;;;;;;25.89;63.86;94317.25;5017804;28;20465;-78
2022/08/15 06:02:49;;;;;;;15.60;13.47;;;;;;;25.71;64.36;94319.28;5052681;28;20452;-79
2022/08/15 06:05:21;;;;;;;18.67;15.77;;;;;;;25.40;65.73;94309.72;5052476;28;20816;-79
2022/08/15 06:07:50;;;;;;;20.90;17.97;;;;;;;24.60;69.98;94307.59;5018539;28;20442;-80
2022/08/15 06:10:27;;;;;;;19.93;15.73;;;;;;;24.38;72.15;94302.75;5052573;28;20952;-79
2022/08/15 06:13:00;;;;;;;21.70;17.67;;;;;;;24.21;73.08;94303.59;5019333;28;20450;-78
2022/08/15 06:15:35;;;;;;;26.33;17.80;;;;;;;23.55;75.81;94307.13;5051658;28;20948;-79
2022/08/15 06:18:06;;;;;;;28.70;20.27;;;;;;;23.30;77.61;94302.66;5052836;28;20535;-79
2022/08/15 06:20:39;;;;;;;29.70;16.90;;;;;;;23.01;78.71;94300.69;5052461;28;20446;-79
2022/08/15 06:23:16;;;;;;;23.83;17.83;;;;;;;22.89;79.33;94305.13;5052046;28;20889;-79
2022/08/15 06:25:51;;;;;;;23.43;18.30;;;;;;;22.78;80.17;94303.94;5052095;28;20448;-79
2022/08/15 06:28:38;;;;;;;24.10;17.17;;;;;;;22.55;80.49;94300.03;5052264;28;20442;-79
2022/08/15 06:31:10;;;;;;;26.97;19.43;;;;;;;22.47;81.66;94294.94;5052383;28;20461;-79
2022/08/15 06:33:42;;;;;;;24.90;17.77;;;;;;;22.30;82.59;94295.72;5052157;28;20449;-79
2022/08/15 06:36:18;;;;;;;27.53;19.87;;;;;;;22.37;83.38;94299.16;5052152;28;20445;-78
2022/08/15 06:38:52;;;;;;;21.57;17.93;;;;;;;21.93;84.78;94300.81;5052379;28;20476;-79
2022/08/15 06:41:26;;;;;;;23.30;19.10;;;;;;;21.77;85.91;94298.66;5052096;28;20457;-79
2022/08/15 06:43:54;;;;;;;24.27;19.30;;;;;;;21.68;85.08;94298.06;5052190;28;20572;-79
2022/08/15 06:46:25;;;;;;;26.57;19.50;;;;;;;21.67;85.21;94296.44;5051014;28;20441;-79
2022/08/15 06:48:52;;;;;;;28.70;19.33;;;;;;;21.61;85.17;94306.09;5017772;28;20446;-80
2022/08/15 06:51:19;;;;;;;34.90;19.07;;;;;;;21.71;86.44;94304.84;5051775;28;20446;-79
2022/08/15 06:53:55;;;;;;;25.53;19.57;;;;;;;21.52;87.73;94310.06;5051832;28;20605;-79
2022/08/15 06:56:29;;;;;;;26.23;19.50;;;;;;;21.33;87.21;94316.28;5016775;28;20438;-79
2022/08/15 06:59:01;;;;;;;24.97;19.20;;;;;;;21.52;87.38;94314.56;5052212;28;20465;-79
2022/08/15 07:01:39;;;;;;;22.87;19.63;;;;;;;21.40;88.84;94314.44;5052096;28;20446;-79
2022/08/15 07:04:15;;;;;;;28.80;18.80;;;;;;;21.48;88.19;94316.84;5051991;28;20481;-79
2022/08/15 07:06:46;;;;;;;24.77;19.23;;;;;;;21.45;87.82;94319.94;5051916;28;20860;-79
2022/08/15 07:09:28;;;;;;;26.70;21.40;;;;;;;21.31;87.82;94316.50;5052022;28;20495;-79
2022/08/15 07:12:09;;;;;;;26.70;20.63;;;;;;;21.53;86.96;94319.72;5051990;28;20444;-79
2022/08/15 07:14:59;;;;;;;29.83;21.87;;;;;;;21.71;85.14;94318.22;5019518;28;20487;-79
2022/08/15 07:17:31;;;;;;;30.40;23.37;;;;;;;21.82;84.72;94325.53;5016929;28;20780;-79
2022/08/15 07:19:58;;;;;;;29.70;21.67;;;;;;;21.91;84.47;94322.41;5051959;28;20541;-79
2022/08/15 07:22:26;;;;;;;33.13;23.17;;;;;;;21.97;83.49;94323.41;5016956;28;20458;-79
2022/08/15 07:24:56;;;;;;;28.90;22.13;;;;;;;22.12;81.21;94318.63;5051743;28;20521;-79
2022/08/15 07:27:30;;;;;;;28.07;23.47;;;;;;;22.25;81.38;94312.38;5054345;28;20508;-80
2022/08/15 07:30:00;;;;;;;32.37;25.40;;;;;;;22.32;80.29;94309.66;5055714;28;20445;-79
2022/08/15 07:32:31;;;;;;;34.90;25.30;;;;;;;22.09;81.00;94320.91;5021263;28;20448;-79
2022/08/15 07:35:04;;;;;;;32.03;24.07;;;;;;;22.06;81.32;94322.16;5055840;28;20450;-79
2022/08/15 07:37:34;;;;;;;40.93;25.40;;;;;;;22.00;81.84;94323.00;5055882;28;20442;-80
2022/08/15 07:40:04;;;;;;;37.27;27.13;;;;;;;22.06;81.70;94332.84;5055543;28;20591;-79
2022/08/15 07:42:38;;;;;;;32.67;25.17;;;;;;;22.19;81.71;94332.75;5055474;28;20460;-79
2022/08/15 07:45:12;;;;;;;42.37;26.60;;;;;;;22.31;81.60;94335.59;5020869;28;20477;-79
2022/08/15 07:47:39;;;;;;;51.40;27.60;;;;;;;22.54;81.58;94333.13;5055377;28;20457;-79
2022/08/15 07:50:28;;;;;;;40.47;26.30;;;;;;;22.98;80.88;94322.53;5055587;28;20452;-79
2022/08/15 07:52:56;;;;;;;31.70;25.03;;;;;;;23.51;75.93;94341.56;5055516;28;20861;-79
2022/08/15 07:55:24;;;;;;;25.90;21.90;;;;;;;23.86;74.67;94333.75;5055971;28;20477;-79
2022/08/15 07:58:03;;;;;;;62.27;28.90;;;;;;;24.09;73.56;94344.59;5055404;28;20531;-78
2022/08/15 08:00:34;;;;;;;34.83;24.37;;;;;;;24.19;73.59;94343.22;5036428;28;20441;-78
2022/08/15 08:03:10;;;;;;;30.00;25.17;;;;;;;24.05;72.57;94346.09;5055291;28;20944;-78
2022/08/15 08:05:47;;;;;;;28.37;24.20;;;;;;;23.99;73.10;94348.84;5055780;28;20441;-79
2022/08/15 08:08:15;;;;;;;33.20;24.07;;;;;;;23.66;73.91;94346.56;5055459;28;20481;-79
2022/08/15 08:10:49;;;;;;;26.27;22.20;;;;;;;23.60;74.45;94339.44;5054761;28;20826;-79
2022/08/15 08:13:35;;;;;;;25.90;21.40;;;;;;;24.01;74.07;94352.13;5054732;28;20449;-80
2022/08/15 08:16:07;;;;;;;27.20;23.40;;;;;;;24.26;72.55;94352.81;5054794;28;20450;-80
2022/08/15 08:18:44;;;;;;;31.13;25.20;;;;;;;24.16;73.02;94354.41;5054730;28;20441;-79
2022/08/15 08:21:16;;;;;;;26.03;22.10;;;;;;;24.36;72.45;94360.34;5036071;28;20438;-79
2022/08/15 08:23:47;;;;;;;30.10;22.27;;;;;;;24.84;72.39;94367.47;5054616;28;20512;-78
2022/08/15 08:26:28;;;;;;;23.57;20.00;;;;;;;25.41;70.77;94362.41;5055006;28;20841;-80
2022/08/15 08:29:07;;;;;;;30.47;22.67;;;;;;;25.54;67.50;94359.50;5054664;28;20445;-79
2022/08/15 08:31:45;;;;;;;26.23;22.73;;;;;;;25.50;68.66;94355.66;5054733;28;20492;-79
2022/08/15 08:34:19;;;;;;;25.90;21.53;;;;;;;25.36;67.41;94351.56;5054437;28;20832;-79
2022/08/15 08:36:56;;;;;;;26.73;22.20;;;;;;;25.45;67.47;94352.84;5054604;28;20456;-79
2022/08/15 08:39:32;;;;;;;24.07;21.40;;;;;;;25.69;67.05;94351.78;5053684;28;20442;-79
2022/08/15 08:42:08;;;;;;;27.73;21.13;;;;;;;25.76;66.16;94344.41;5019184;28;20468;-80
2022/08/15 08:44:44;;;;;;;28.00;24.30;;;;;;;25.81;66.23;94347.22;5054369;28;20485;-79
2022/08/15 08:47:33;;;;;;;24.17;21.57;;;;;;;25.60;66.53;94350.47;5054597;28;20449;-80
2022/08/15 08:50:22;;;;;;;23.60;20.27;;;;;;;25.79;66.89;94346.63;5054315;28;20446;-79
2022/08/15 08:52:59;;;;;;;26.00;23.17;;;;;;;25.86;66.33;94333.88;4992494;28;20499;-80
2022/08/15 08:55:30;;;;;;;21.33;19.13;;;;;;;25.80;66.21;94321.38;4992554;28;20447;-79
2022/08/15 08:58:03;;;;;;;25.00;21.60;;;;;;;26.00;65.58;94323.66;4992491;28;20480;-80
2022/08/15 09:00:40;;;;;;;25.93;21.33;;;;;;;25.87;66.36;94322.06;4992570;28;20475;-80
2022/08/15 09:03:14;;;;;;;25.90;22.87;;;;;;;25.80;67.19;94325.94;4992471;28;20440;-80
2022/08/15 09:05:51;;;;;;;22.47;20.10;;;;;;;25.84;68.10;94319.03;4992319;28;20519;-80
2022/08/15 09:08:25;;;;;;;21.70;19.03;;;;;;;26.00;66.91;94312.06;4992264;28;20449;-80
2022/08/15 09:10:58;;;;;;;25.10;20.40;;;;;;;25.98;66.49;94314.19;4992066;28;21022;-79
2022/08/15 09:13:36;;;;;;;22.23;19.70;;;;;;;26.24;66.42;94314.44;4959725;28;20440;-79
2022/08/15 09:16:14;;;;;;;25.20;19.50;;;;;;;26.27;65.00;94317.69;4992102;28;20455;-79
2022/08/15 09:18:46;;;;;;;27.00;19.83;;;;;;;26.45;65.04;94315.66;4992254;28;20445;-80
2022/08/15 09:21:13;;;;;;;22.20;19.80;;;;;;;26.52;63.92;94312.81;4992287;28;20607;-79
2022/08/15 09:23:43;;;;;;;22.00;19.80;;;;;;;26.74;63.10;94310.22;4959781;28;20535;-80
2022/08/15 09:26:17;;;;;;;21.90;18.13;;;;;;;26.79;61.57;94310.31;4991856;28;20498;-78
2022/08/15 09:28:49;;;;;;;20.70;18.50;;;;;;;26.76;62.55;94305.41;4992211;28;20456;-80
2022/08/15 09:31:21;;;;;;;22.93;19.20;;;;;;;26.89;60.94;94310.50;5053458;28;20445;-80
2022/08/15 09:34:17;;;;;;;22.77;20.47;;;;;;;26.67;60.10;94314.97;5053438;28;20507;-80
2022/08/15 09:37:06;;;;;;;21.40;18.17;;;;;;;26.65;61.78;94304.44;5018380;28;20454;-79
2022/08/15 09:39:50;;;;;;;21.87;19.43;;;;;;;26.69;62.23;94300.19;5053163;28;20449;-80
2022/08/15 09:42:34;;;;;;;21.50;19.00;;;;;;;26.67;60.48;94307.69;5053450;28;20457;-80
2022/08/15 09:45:32;;;;;;;20.87;18.63;;;;;;;26.76;60.88;94300.84;5053021;28;20527;-80
2022/08/15 09:48:15;;;;;;;21.83;19.60;;;;;;;26.72;61.17;94312.34;5053541;28;20456;-79
2022/08/15 09:50:58;;;;;;;20.77;18.50;;;;;;;26.73;60.28;94304.03;5052447;28;20446;-79
2022/08/15 09:53:37;;;;;;;21.27;19.07;;;;;;;26.47;60.51;94301.97;5053135;28;20907;-79
2022/08/15 09:56:10;;;;;;;24.30;18.90;;;;;;;26.55;61.13;94299.69;5053164;28;20920;-80
2022/08/15 09:58:50;;;;;;;21.33;19.10;;;;;;;26.63;60.61;94306.56;5053054;28;20809;-79
2022/08/15 10:01:22;;;;;;;25.03;19.43;;;;;;;26.51;61.60;94295.84;5053069;28;20453;-78
2022/08/15 10:03:59;;;;;;;19.73;17.53;;;;;;;26.33;61.30;94293.34;5052703;28;20500;-79
2022/08/15 10:06:30;;;;;;;19.93;17.83;;;;;;;26.33;61.73;94298.75;5052771;28;20442;-79
2022/08/15 10:09:22;;;;;;;18.80;16.27;;;;;;;26.16;62.78;94284.41;5052824;28;20446;-79
2022/08/15 10:11:58;;;;;;;20.40;17.70;;;;;;;26.36;60.37;94292.09;5052655;28;20936;-79
2022/08/15 10:14:28;;;;;;;19.30;17.40;;;;;;;26.38;60.12;94288.09;5052759;28;20446;-79
2022/08/15 10:16:59;;;;;;;19.27;17.23;;;;;;;26.47;61.80;94286.63;5052732;28;20459;-78
2022/08/15 10:19:30;;;;;;;19.37;17.47;;;;;;;26.54;61.51;94286.47;5052689;28;20442;-79
2022/08/15 10:22:00;;;;;;;18.27;16.13;;;;;;;26.48;62.04;94288.25;5052428;28;20959;-80
2022/08/15 10:24:32;;;;;;;19.27;17.27;;;;;;;26.38;62.52;94280.03;5052466;28;20507;-79
2022/08/15 10:27:17;;;;;;;19.63;17.63;;;;;;;26.46;63.38;94278.81;5052562;28;21016;-79
2022/08/15 10:29:48;;;;;;;22.70;19.30;;;;;;;26.50;63.31;94280.75;5052516;28;20452;-79
2022/08/15 10:32:26;;;;;;;21.13;18.87;;;;;;;26.46;62.10;94274.22;5052447;28;20870;-79
2022/08/15 10:35:02;;;;;;;23.57;17.50;;;;;;;26.47;62.78;94275.03;5052329;28;20912;-79
2022/08/15 10:37:33;;;;;;;26.80;19.53;;;;;;;26.47;62.03;94281.25;5052269;28;20445;-79
2022/08/15 10:40:32;;;;;;;22.90;18.23;;;;;;;26.57;62.36;94277.09;5052198;28;20452;-78
2022/08/15 10:43:40;;;;;;;18.37;16.47;;;;;;;26.64;62.08;94275.06;5052191;28;20454;-78
2022/08/15 10:46:19;;;;;;;19.00;16.57;;;;;;;26.65;60.95;94282.09;5052345;28;20824;-79
2022/08/15 10:48:58;;;;;;;19.47;17.47;;;;;;;26.78;60.86;94276.38;5052327;28;20464;-79
2022/08/15 10:51:44;;;;;;;17.87;16.13;;;;;;;26.81;60.54;94275.88;5052406;28;20978;-79
2022/08/15 10:54:25;;;;;;;21.73;17.60;;;;;;;26.88;60.86;94267.63;5052114;28;21018;-79
2022/08/15 10:56:55;;;;;;;18.07;16.27;;;;;;;26.73;60.49;94269.03;5052010;28;20833;-79
2022/08/15 10:59:26;;;;;;;17.60;15.73;;;;;;;26.76;60.14;94270.41;5051826;28;20537;-78
2022/08/15 11:02:05;;;;;;;15.70;14.23;;;;;;;26.79;60.13;94268.03;5051536;28;20453;-79
2022/08/15 11:04:35;;;;;;;15.93;14.17;;;;;;;26.65;59.73;94258.69;5051711;28;20489;-80
2022/08/15 11:07:17;;;;;;;16.13;14.50;;;;;;;26.68;60.61;94260.88;5051945;28;20438;-78
2022/08/15 11:09:52;;;;;;;14.97;13.37;;;;;;;26.84;59.13;94270.00;5051751;28;20932;-79
2022/08/15 11:12:20;;;;;;;15.23;13.83;;;;;;;26.90;58.98;94262.84;5051808;28;20456;-79
2022/08/15 11:14:52;;;;;;;15.00;13.50;;;;;;;26.81;59.52;94268.59;5051856;28;20450;-79
2022/08/15 11:17:24;;;;;;;16.23;14.53;;;;;;;26.82;59.18;94261.34;5051806;28;20940;-78
2022/08/15 11:19:53;;;;;;;14.33;12.77;;;;;;;26.84;58.59;94270.00;5051807;28;20446;-79
2022/08/15 11:22:32;;;;;;;13.93;12.40;;;;;;;26.81;59.99;94270.50;5052045;28;20454;-78
2022/08/15 11:25:02;;;;;;;14.30;12.90;;;;;;;26.93;60.19;94260.47;5051755;28;20488;-78
2022/08/15 11:27:30;;;;;;;14.90;13.50;;;;;;;27.05;56.96;94263.88;5051715;28;20453;-78
2022/08/15 11:29:58;;;;;;;15.30;12.37;;;;;;;27.11;56.64;94248.63;5051844;28;20944;-79
2022/08/15 11:32:28;;;;;;;14.53;13.03;;;;;;;27.15;58.34;94250.56;5051761;28;20442;-79
2022/08/15 11:34:56;;;;;;;13.93;12.30;;;;;;;27.18;58.65;94249.28;5051738;28;20473;-79
2022/08/15 11:37:26;;;;;;;13.47;11.73;;;;;;;27.18;57.81;94251.97;5051711;28;20456;-79
2022/08/15 11:40:01;;;;;;;14.57;13.27;;;;;;;27.11;58.30;94243.22;5052116;28;20499;-79
2022/08/15 11:42:30;;;;;;;15.37;13.87;;;;;;;27.07;58.30;94244.78;5032582;28;20456;-80
2022/08/15 11:44:59;;;;;;;14.33;12.70;;;;;;;27.14;57.60;94250.81;5051601;28;20488;-79
2022/08/15 11:47:29;;;;;;;15.60;12.90;;;;;;;27.21;58.08;94248.78;5051537;28;20483;-79
2022/08/15 11:50:00;;;;;;;15.50;13.60;;;;;;;27.34;57.26;94242.19;5051335;28;20454;-80
2022/08/15 11:52:30;;;;;;;13.10;11.90;;;;;;;27.43;56.79;94251.47;5051321;28;20446;-79
2022/08/15 11:55:19;;;;;;;16.70;13.47;;;;;;;27.48;56.34;94240.78;5051902;28;20529;-80